createdAt,value
2022-11-08T00:05:40.397Z,40.04
2022-11-08T00:08:37.949Z,39.78
2022-11-08T00:11:55.998Z,40.35
2022-11-08T00:14:31.723Z,41.37
2022-11-08T00:17:08.530Z,38.71
2022-11-08T00:19:41.294Z,38.29
2022-11-08T00:22:15.130Z,38.12
2022-11-08T00:24:48.176Z,38.21
2022-11-08T00:27:22.633Z,38.26
2022-11-08T00:30:33.204Z,38.19
2022-11-08T00:33:24.176Z,37.79
2022-11-08T00:37:05.786Z,37.63
2022-11-08T00:39:38.628Z,38.30
2022-11-08T00:42:08.910Z,37.90
2022-11-08T00:44:39.470Z,37.55
2022-11-08T00:47:09.771Z,37.99
2022-11-08T00:49:40.244Z,37.35
2022-11-08T00:52:10.485Z,37.42
2022-11-08T00:54:40.638Z,37.38
2022-11-08T00:59:17.150Z,37.36
2022-11-08T01:00:46.248Z,37.36
2022-11-08T01:03:52.114Z,37.65
2022-11-08T01:06:25.355Z,37.17
2022-11-08T01:08:58.664Z,37.23
2022-11-08T01:11:30.069Z,36.88
2022-11-08T01:14:02.526Z,37.36
2022-11-08T01:16:36.342Z,37.07
2022-11-08T01:19:08.402Z,36.77
2022-11-08T01:22:22.872Z,36.54
2022-11-08T01:25:07.807Z,37.02
2022-11-08T01:27:37.970Z,36.88
2022-11-08T01:30:10.356Z,36.91
2022-11-08T01:32:46.705Z,36.79
2022-11-08T01:35:18.619Z,36.98
2022-11-08T01:47:01.591Z,36.70
2022-11-08T02:06:28.019Z,36.16
2022-11-08T02:09:06.894Z,36.19
2022-11-08T02:11:52.566Z,36.17
2022-11-08T02:14:24.175Z,36.29
2022-11-08T02:17:55.586Z,36.25
2022-11-08T02:21:00.444Z,36.37
2022-11-08T02:23:56.515Z,36.56
2022-11-08T02:26:36.676Z,36.18
2022-11-08T02:29:34.678Z,36.27
2022-11-08T02:32:07.925Z,36.00
2022-11-08T02:34:54.477Z,36.15
2022-11-08T02:37:30.230Z,36.56
2022-11-08T02:44:15.800Z,36.59
2022-11-08T02:47:26.928Z,36.54
2022-11-08T02:50:10.944Z,36.43
2022-11-08T02:52:55.685Z,36.32
2022-11-08T02:55:25.763Z,36.55
2022-11-08T02:57:55.786Z,36.61
2022-11-08T03:00:25.968Z,36.44
2022-11-08T03:03:00.849Z,36.43
2022-11-08T03:05:32.565Z,36.50
2022-11-08T03:08:04.149Z,36.82
2022-11-08T03:10:36.139Z,37.03
2022-11-08T03:13:11.497Z,36.43
2022-11-08T03:15:41.884Z,36.97
2022-11-08T03:18:11.805Z,36.45
2022-11-08T03:20:42.507Z,36.93
2022-11-08T03:23:14.174Z,36.88
2022-11-08T03:25:45.320Z,36.58
2022-11-08T03:28:23.294Z,36.53
2022-11-08T03:30:55.566Z,36.98
2022-11-08T03:33:28.952Z,36.65
2022-11-08T03:36:12.974Z,36.84
2022-11-08T03:38:44.483Z,36.66
2022-11-08T03:41:20.882Z,36.77
2022-11-08T03:43:56.757Z,36.93
2022-11-08T03:46:27.627Z,36.96
2022-11-08T03:48:58.487Z,36.49
2022-11-08T03:51:28.457Z,36.17
2022-11-08T03:53:58.509Z,36.21
2022-11-08T03:56:30.089Z,36.67
2022-11-08T03:59:01.055Z,36.65
2022-11-08T04:01:31.156Z,36.06
2022-11-08T04:04:01.675Z,36.43
2022-11-08T04:06:31.232Z,36.23
2022-11-08T04:09:01.308Z,36.46
2022-11-08T04:11:50.162Z,36.46
2022-11-08T04:14:39.406Z,36.77
2022-11-08T04:17:09.495Z,36.14
2022-11-08T04:19:59.503Z,36.47
2022-11-08T04:22:31.383Z,36.38
2022-11-08T04:25:02.722Z,36.23
2022-11-08T04:27:34.117Z,36.43
2022-11-08T04:30:07.269Z,35.87
2022-11-08T04:32:38.734Z,36.45
2022-11-08T04:35:10.330Z,36.42
2022-11-08T04:37:42.326Z,36.68
2022-11-08T04:40:14.618Z,36.23
2022-11-08T04:42:49.032Z,36.37
2022-11-08T04:45:19.488Z,36.78
2022-11-08T04:47:51.076Z,36.31
2022-11-08T04:50:22.500Z,36.31
2022-11-08T04:52:58.479Z,36.52
2022-11-08T04:55:28.772Z,36.48
2022-11-08T04:58:03.737Z,36.20
2022-11-08T05:00:34.221Z,36.17
2022-11-08T05:03:04.822Z,36.41
2022-11-08T05:05:36.409Z,36.05
2022-11-08T05:08:08.711Z,36.21
2022-11-08T05:10:38.962Z,36.41
2022-11-08T05:13:11.032Z,36.47
2022-11-08T05:15:42.381Z,35.80
2022-11-08T05:18:12.615Z,36.11
2022-11-08T05:21:02.501Z,36.25
2022-11-08T05:23:34.913Z,36.05
2022-11-08T05:26:06.133Z,35.99
2022-11-08T05:28:37.601Z,35.99
2022-11-08T05:31:09.715Z,36.22
2022-11-08T05:33:42.106Z,35.83
2022-11-08T05:36:14.809Z,36.04
2022-11-08T05:38:47.565Z,35.68
2022-11-08T05:41:21.930Z,36.24
2022-11-08T05:43:54.642Z,36.00
2022-11-08T05:46:26.254Z,36.00
2022-11-08T05:48:58.139Z,35.88
2022-11-08T05:51:29.672Z,36.35
2022-11-08T05:54:00.609Z,36.51
2022-11-08T05:56:30.907Z,36.13
2022-11-08T05:59:01.404Z,35.90
2022-11-08T06:01:31.996Z,35.57
2022-11-08T06:04:03.126Z,36.07
2022-11-08T06:06:35.187Z,35.70
2022-11-08T06:09:07.418Z,35.67
2022-11-08T06:11:39.927Z,35.19
2022-11-08T06:14:13.469Z,35.35
2022-11-08T06:16:44.089Z,35.86
2022-11-08T06:19:16.230Z,35.83
2022-11-08T06:21:48.643Z,35.72
2022-11-08T06:24:20.390Z,35.65
2022-11-08T06:26:52.577Z,35.38
2022-11-08T06:29:25.523Z,36.04
2022-11-08T06:31:57.285Z,35.43
2022-11-08T06:34:29.425Z,36.17
2022-11-08T06:37:01.581Z,34.99
2022-11-08T06:39:33.360Z,35.72
2022-11-08T06:42:04.941Z,34.68
2022-11-08T06:44:36.533Z,34.30
2022-11-08T06:47:07.148Z,35.57
2022-11-08T06:49:39.451Z,35.70
2022-11-08T06:52:10.850Z,35.72
2022-11-08T06:54:41.903Z,35.41
2022-11-08T06:57:13.059Z,35.37
2022-11-08T06:59:44.192Z,35.84
2022-11-08T07:02:15.367Z,35.69
2022-11-08T07:04:45.652Z,35.97
2022-11-08T07:07:16.678Z,35.47
2022-11-08T07:09:46.687Z,36.16
2022-11-08T07:12:17.224Z,35.80
2022-11-08T07:14:48.654Z,35.51
2022-11-08T07:17:19.780Z,35.66
2022-11-08T07:19:50.061Z,35.80
2022-11-08T07:22:20.753Z,35.31
2022-11-08T07:24:51.139Z,35.47
2022-11-08T07:27:21.717Z,35.28
2022-11-08T07:29:51.936Z,35.22
2022-11-08T07:32:22.319Z,35.16
2022-11-08T07:34:53.600Z,35.72
2022-11-08T07:37:25.208Z,35.28
2022-11-08T07:39:56.514Z,35.52
2022-11-08T07:42:38.398Z,35.60
2022-11-08T07:45:18.158Z,35.59
2022-11-08T07:47:50.953Z,35.61
2022-11-08T07:50:24.789Z,35.51
2022-11-08T07:53:00.694Z,34.89
2022-11-08T07:55:31.899Z,35.55
2022-11-08T07:58:04.446Z,35.25
2022-11-08T08:00:41.413Z,35.18
2022-11-08T08:03:14.844Z,35.71
2022-11-08T08:05:46.986Z,35.39
2022-11-08T08:08:18.642Z,35.78
2022-11-08T08:10:49.905Z,35.85
2022-11-08T08:13:21.069Z,35.73
2022-11-08T08:15:51.855Z,36.01
2022-11-08T08:18:24.430Z,35.52
2022-11-08T08:20:54.877Z,36.14
2022-11-08T08:23:31.661Z,35.50
2022-11-08T08:26:06.361Z,35.33
2022-11-08T08:28:37.174Z,35.86
2022-11-08T08:31:08.342Z,35.48
2022-11-08T08:33:39.884Z,35.41
2022-11-08T08:36:11.112Z,36.01
2022-11-08T08:38:44.737Z,35.55
2022-11-08T08:41:16.432Z,35.58
2022-11-08T08:43:46.714Z,35.81
2022-11-08T08:46:17.712Z,35.63
2022-11-08T08:48:48.547Z,35.41
2022-11-08T08:51:19.311Z,35.79
2022-11-08T08:53:50.795Z,35.92
2022-11-08T08:56:22.563Z,35.77
2022-11-08T09:01:44.315Z,35.75
2022-11-08T09:04:15.845Z,36.52
2022-11-08T09:06:48.985Z,35.65
2022-11-08T09:09:20.870Z,36.16
2022-11-08T09:11:51.029Z,36.00
2022-11-08T09:14:21.471Z,36.12
2022-11-08T09:16:53.178Z,35.94
2022-11-08T09:19:24.327Z,36.46
2022-11-08T09:21:55.657Z,36.77
2022-11-08T09:24:25.817Z,36.15
2022-11-08T09:26:56.797Z,36.40
2022-11-08T09:29:27.115Z,36.35
2022-11-08T09:31:59.805Z,36.72
2022-11-08T09:34:32.154Z,36.22
2022-11-08T09:37:02.201Z,36.58
2022-11-08T09:39:32.655Z,36.62
2022-11-08T09:42:24.598Z,36.64
2022-11-08T09:45:12.697Z,36.75
2022-11-08T09:47:46.688Z,36.18
2022-11-08T09:50:41.522Z,36.47
2022-11-08T09:53:36.432Z,36.95
2022-11-08T09:56:21.654Z,36.61
2022-11-08T09:59:06.853Z,36.82
2022-11-08T10:01:39.576Z,36.86
2022-11-08T10:04:17.745Z,36.20
2022-11-08T10:07:16.982Z,36.86
2022-11-08T10:10:07.115Z,36.52
2022-11-08T10:12:47.598Z,37.05
2022-11-08T10:15:21.898Z,37.49
2022-11-08T10:17:52.279Z,37.58
2022-11-08T10:20:51.621Z,37.42
2022-11-08T10:23:23.715Z,37.42
2022-11-08T10:26:12.278Z,36.90
2022-11-08T10:29:01.695Z,37.23
2022-11-08T10:31:36.939Z,37.94
2022-11-08T10:34:19.726Z,36.86
2022-11-08T10:36:52.852Z,37.01
2022-11-08T10:39:30.926Z,37.32
2022-11-08T10:42:12.112Z,37.05
2022-11-08T10:44:44.126Z,37.94
2022-11-08T10:47:28.434Z,37.20
2022-11-08T10:50:03.427Z,37.20
2022-11-08T10:52:37.388Z,37.52
2022-11-08T10:55:25.044Z,37.16
2022-11-08T10:57:56.747Z,37.68
2022-11-08T11:00:31.887Z,36.90
2022-11-08T11:03:06.355Z,37.55
2022-11-08T11:05:45.621Z,37.67
2022-11-08T11:08:18.706Z,37.70
2022-11-08T11:10:50.434Z,37.28
2022-11-08T11:13:20.951Z,37.60
2022-11-08T11:16:07.395Z,37.40
2022-11-08T11:18:51.785Z,37.85
2022-11-08T11:21:26.688Z,37.67
2022-11-08T11:24:29.804Z,37.58
2022-11-08T11:26:59.736Z,38.03
2022-11-08T11:29:37.959Z,38.70
2022-11-08T11:32:28.771Z,37.73
2022-11-08T11:35:06.371Z,37.91
2022-11-08T11:37:46.905Z,38.37
2022-11-08T11:40:35.697Z,38.19
2022-11-08T11:43:11.729Z,37.68
2022-11-08T11:46:04.663Z,38.59
2022-11-08T11:48:46.613Z,38.33
2022-11-08T11:51:18.309Z,38.62
2022-11-08T11:53:49.315Z,38.47
2022-11-08T11:56:29.115Z,38.71
2022-11-08T11:59:22.341Z,38.61
2022-11-08T12:02:23.687Z,38.41
2022-11-08T12:05:31.692Z,38.35
2022-11-08T12:08:18.665Z,38.53
2022-11-08T12:11:09.984Z,38.67
2022-11-08T12:14:05.647Z,38.38
2022-11-08T12:16:49.562Z,38.59
2022-11-08T12:19:42.804Z,38.31
2022-11-08T12:22:51.418Z,38.96
2022-11-08T12:25:46.127Z,38.55
2022-11-08T12:28:27.407Z,38.52
2022-11-08T12:31:24.263Z,39.26
2022-11-08T12:34:05.187Z,39.03
2022-11-08T12:37:01.926Z,39.23
2022-11-08T12:39:42.769Z,39.69
2022-11-08T12:42:27.555Z,39.57
2022-11-08T12:45:10.723Z,40.11
2022-11-08T12:48:04.436Z,40.44
2022-11-08T12:50:37.593Z,39.59
2022-11-08T12:53:45.649Z,40.49
2022-11-08T12:56:29.417Z,40.53
2022-11-08T12:59:01.355Z,40.17
2022-11-08T13:01:32.424Z,40.34
2022-11-08T13:04:22.562Z,40.35
2022-11-08T13:07:13.060Z,42.73
2022-11-08T13:09:58.404Z,40.56
2022-11-08T13:13:11.858Z,40.55
2022-11-08T13:16:14.380Z,40.56
2022-11-08T13:18:56.956Z,40.77
2022-11-08T13:21:36.514Z,40.61
2022-11-08T13:24:37.827Z,40.83
2022-11-08T13:27:46.797Z,40.64
2022-11-08T13:30:20.188Z,41.20
2022-11-08T13:33:07.369Z,40.93
2022-11-08T13:36:24.749Z,41.25
2022-11-08T13:39:27.291Z,41.80
2022-11-08T13:42:27.242Z,41.72
2022-11-08T13:45:17.350Z,42.48
2022-11-08T13:47:51.683Z,41.36
2022-11-08T13:50:32.346Z,42.79
2022-11-08T13:53:32.696Z,41.71
2022-11-08T13:56:10.123Z,41.25
2022-11-08T13:58:47.968Z,42.29
2022-11-08T14:01:21.652Z,41.63
2022-11-08T14:03:57.130Z,43.01
2022-11-08T14:07:00.431Z,42.05
2022-11-08T14:10:10.328Z,42.32
2022-11-08T14:13:05.324Z,41.14
2022-11-08T14:16:13.608Z,41.79
2022-11-08T14:18:49.494Z,41.40
2022-11-08T14:21:26.156Z,41.78
2022-11-08T14:23:59.656Z,42.33
2022-11-08T14:26:35.300Z,41.22
2022-11-08T14:29:12.572Z,40.88
2022-11-08T14:31:43.745Z,41.40
2022-11-08T14:34:53.045Z,41.79
2022-11-08T14:37:33.867Z,40.12
2022-11-08T14:40:05.915Z,40.69
2022-11-08T14:42:37.392Z,41.93
2022-11-08T14:45:23.148Z,40.87
2022-11-08T14:48:06.960Z,40.99
2022-11-08T14:50:38.727Z,41.61
2022-11-08T14:53:34.427Z,40.77
2022-11-08T14:56:14.809Z,41.77
2022-11-08T14:58:46.664Z,41.30
2022-11-08T15:01:22.337Z,41.15
2022-11-08T15:04:03.468Z,41.46
2022-11-08T15:06:49.416Z,40.93
2022-11-08T15:09:38.355Z,40.84
2022-11-08T15:12:18.947Z,41.03
2022-11-08T15:15:04.347Z,40.89
2022-11-08T15:17:40.122Z,40.34
2022-11-08T15:20:17.038Z,41.45
2022-11-08T15:22:56.325Z,41.79
2022-11-08T15:25:38.602Z,42.08
2022-11-08T15:28:32.654Z,42.56
2022-11-08T15:31:08.247Z,41.97
2022-11-08T15:33:43.443Z,42.50
2022-11-08T15:36:17.875Z,42.82
2022-11-08T15:38:52.524Z,42.58
2022-11-08T15:41:41.612Z,42.57
2022-11-08T15:44:27.560Z,42.17
2022-11-08T15:47:02.890Z,41.93
2022-11-08T15:49:34.635Z,41.94
2022-11-08T15:52:07.142Z,41.78
2022-11-08T15:54:37.560Z,42.34
2022-11-08T15:57:09.541Z,41.91
2022-11-08T15:59:41.264Z,41.07
2022-11-08T16:02:16.862Z,40.92
2022-11-08T16:04:48.396Z,41.18
2022-11-08T16:07:20.576Z,42.07
2022-11-08T16:09:52.158Z,42.76
2022-11-08T16:12:25.214Z,42.99
2022-11-08T16:15:00.333Z,42.80
2022-11-08T16:17:35.073Z,43.02
2022-11-08T16:20:06.557Z,42.20
2022-11-08T16:22:39.883Z,43.08
2022-11-08T16:25:10.967Z,43.17
2022-11-08T16:27:41.612Z,42.51
2022-11-08T16:30:21.589Z,42.94
2022-11-08T16:32:54.154Z,43.00
2022-11-08T16:35:25.812Z,43.84
2022-11-08T16:37:56.631Z,43.02
2022-11-08T16:40:28.445Z,43.13
2022-11-08T16:42:59.293Z,42.90
2022-11-08T16:45:58.408Z,44.23
2022-11-08T16:48:27.120Z,42.95
2022-11-08T16:51:02.707Z,43.64
2022-11-08T16:53:34.833Z,43.91
2022-11-08T16:56:06.338Z,43.25
2022-11-08T16:58:37.321Z,43.23
2022-11-08T17:01:10.687Z,43.67
2022-11-08T17:03:42.056Z,43.41
2022-11-08T17:06:22.956Z,43.23
2022-11-08T17:08:53.557Z,44.54
2022-11-08T17:11:26.963Z,44.35
2022-11-08T17:13:58.296Z,44.82
2022-11-08T17:16:29.648Z,44.81
2022-11-08T17:19:00.676Z,45.17
2022-11-08T17:21:46.097Z,44.75
2022-11-08T17:24:21.815Z,44.37
2022-11-08T17:26:53.914Z,44.21
2022-11-08T17:29:26.034Z,44.07
2022-11-08T17:31:56.199Z,42.97
2022-11-08T17:34:27.990Z,43.83
2022-11-08T17:36:58.435Z,43.09
2022-11-08T17:39:30.098Z,42.87
2022-11-08T17:42:02.977Z,42.95
2022-11-08T17:44:34.097Z,42.71
2022-11-08T17:47:05.323Z,42.71
2022-11-08T17:49:41.229Z,42.93
2022-11-08T17:52:14.480Z,45.08
2022-11-08T17:54:50.274Z,44.41
2022-11-08T17:57:24.455Z,43.44
2022-11-08T17:59:54.792Z,44.24
2022-11-08T18:02:26.158Z,44.83
2022-11-08T18:04:56.418Z,44.03
2022-11-08T18:07:27.792Z,45.28
2022-11-08T18:09:59.018Z,45.11
2022-11-08T18:12:31.623Z,44.88
2022-11-08T18:15:02.636Z,43.61
2022-11-08T18:17:32.948Z,44.25
2022-11-08T18:20:03.535Z,43.98
2022-11-08T18:22:34.827Z,44.72
2022-11-08T18:25:05.649Z,46.30
2022-11-08T18:27:35.702Z,46.50
2022-11-08T18:30:07.136Z,46.25
2022-11-08T18:32:38.426Z,44.67
2022-11-08T18:35:08.317Z,44.08
2022-11-08T18:37:39.181Z,44.39
2022-11-08T18:40:11.044Z,44.58
2022-11-08T18:42:43.052Z,44.91
2022-11-08T18:45:14.623Z,45.70
2022-11-08T18:47:44.707Z,44.45
2022-11-08T18:50:14.968Z,44.94
2022-11-08T18:52:46.939Z,45.10
2022-11-08T18:55:19.527Z,44.72
2022-11-08T18:57:50.864Z,45.46
2022-11-08T19:00:21.444Z,45.00
2022-11-08T19:02:51.528Z,46.09
2022-11-08T19:05:22.862Z,45.33
2022-11-08T19:07:53.277Z,46.28
2022-11-08T19:10:23.617Z,44.99
2022-11-08T19:12:54.783Z,45.59
2022-11-08T19:15:30.410Z,45.49
2022-11-08T19:18:02.044Z,45.38
2022-11-08T19:20:33.291Z,45.19
2022-11-08T19:23:05.307Z,44.86
2022-11-08T19:25:36.211Z,45.58
2022-11-08T19:28:06.832Z,44.23
2022-11-08T19:30:37.130Z,44.78
2022-11-08T19:33:06.667Z,45.37
2022-11-08T19:35:39.300Z,45.54
2022-11-08T19:38:10.481Z,44.66
2022-11-08T19:40:43.486Z,45.13
2022-11-08T19:43:14.057Z,45.68
2022-11-08T19:45:50.572Z,45.43
2022-11-08T19:48:22.499Z,45.85
2022-11-08T19:50:54.381Z,45.36
2022-11-08T19:53:24.728Z,45.92
2022-11-08T19:56:01.664Z,45.40
2022-11-08T19:58:33.025Z,44.38
2022-11-08T20:01:14.485Z,44.16
2022-11-08T20:03:45.581Z,44.43
2022-11-08T20:06:20.015Z,44.05
2022-11-08T20:08:55.671Z,43.92
2022-11-08T20:11:26.341Z,44.60
2022-11-08T20:13:57.509Z,44.44
2022-11-08T20:16:35.411Z,45.55
2022-11-08T20:19:08.627Z,46.78
2022-11-08T20:21:45.480Z,45.85
2022-11-08T20:24:17.159Z,44.89
2022-11-08T20:26:47.619Z,45.53
2022-11-08T20:29:19.094Z,45.00
2022-11-08T20:31:53.056Z,44.95
2022-11-08T20:34:25.831Z,45.40
2022-11-08T20:36:56.508Z,45.87
2022-11-08T20:39:27.899Z,47.22
2022-11-08T20:41:58.886Z,46.17
2022-11-08T20:44:30.824Z,46.57
2022-11-08T20:47:06.229Z,45.66
2022-11-08T20:49:37.368Z,45.13
2022-11-08T20:52:07.597Z,46.22
2022-11-08T20:54:43.663Z,46.30
2022-11-08T20:57:15.551Z,46.06
2022-11-08T20:59:45.958Z,46.21
2022-11-08T21:02:17.052Z,45.70
2022-11-08T21:04:47.301Z,47.26
2022-11-08T21:08:01.255Z,48.93
2022-11-08T21:13:00.726Z,46.60
2022-11-08T21:15:31.287Z,46.76
2022-11-08T21:18:02.544Z,47.12
2022-11-08T21:20:34.886Z,47.27
2022-11-08T21:23:05.865Z,46.48
2022-11-08T21:25:36.032Z,45.36
2022-11-08T21:28:07.938Z,46.26
2022-11-08T21:30:38.500Z,46.81
2022-11-08T21:33:09.575Z,46.98
2022-11-08T21:35:39.904Z,47.40
2022-11-08T21:38:10.240Z,46.74
2022-11-08T21:40:40.389Z,47.06
2022-11-08T21:43:11.191Z,47.59
2022-11-08T21:45:42.465Z,47.22
2022-11-08T21:48:15.426Z,45.83
2022-11-08T21:50:46.649Z,46.07
2022-11-08T21:53:17.017Z,46.25
2022-11-08T21:55:47.960Z,47.86
2022-11-08T21:58:18.270Z,46.49
2022-11-08T22:00:52.776Z,46.84
2022-11-08T22:03:23.073Z,46.62
2022-11-08T22:05:53.998Z,45.97
2022-11-08T22:08:24.194Z,47.09
2022-11-08T22:10:54.169Z,46.65
2022-11-08T22:13:24.323Z,45.88
2022-11-08T22:15:54.065Z,46.96
2022-11-08T22:18:36.692Z,46.43
2022-11-08T22:21:33.210Z,46.80
2022-11-08T22:24:04.822Z,46.99
2022-11-08T22:26:35.317Z,46.21
2022-11-08T22:29:05.450Z,47.28
2022-11-08T22:31:37.937Z,47.01
2022-11-08T22:34:10.822Z,48.32
2022-11-08T22:36:45.200Z,46.54
2022-11-08T22:39:17.403Z,47.34
2022-11-08T22:41:51.243Z,47.48
2022-11-08T22:44:23.523Z,45.90
2022-11-08T22:46:53.639Z,45.69
2022-11-08T22:49:23.323Z,47.02
2022-11-08T22:51:53.892Z,48.03
2022-11-08T22:54:24.092Z,46.21
2022-11-08T22:56:54.119Z,46.08
2022-11-08T22:59:25.055Z,46.13
2022-11-08T23:01:56.055Z,46.41
2022-11-08T23:04:26.438Z,45.97
2022-11-08T23:06:56.249Z,46.45
2022-11-08T23:09:26.095Z,47.16
2022-11-08T23:12:14.237Z,48.31
2022-11-08T23:15:02.617Z,47.43
2022-11-08T23:17:32.868Z,47.86
2022-11-08T23:20:23.835Z,47.93
2022-11-08T23:23:11.925Z,47.61
2022-11-08T23:25:42.250Z,49.19
2022-11-08T23:28:30.285Z,49.02
2022-11-08T23:31:22.019Z,48.15
2022-11-08T23:33:52.035Z,49.10
2022-11-08T23:36:23.869Z,48.06
2022-11-08T23:38:55.016Z,46.59
2022-11-08T23:41:45.717Z,47.37
2022-11-08T23:44:29.468Z,48.91
2022-11-08T23:47:03.059Z,46.79
2022-11-08T23:49:35.476Z,47.59
2022-11-08T23:52:06.272Z,45.80
2022-11-08T23:54:36.993Z,45.79
2022-11-08T23:57:07.416Z,45.49
2022-11-08T23:59:38.561Z,47.38
